Jack C. Davis Observatory, Carson City, Nevada Weather observations

Data are for observation ending at time listed.
 Day   Time    Ave.   Ave.  Ave.  Vector   Max.   Stn.    Total    Solar   Ave.  
  of    of     Air    Rel.  Wind   Wind    Wind   Baro.  Precip.   Rad.    Soil  
Year   Day     Temp.  Hum.  Speed  Dir.    Gust   Pres.                    Temp. 
2014   (PST)    F      %     mph   deg.    mph     mb.     in.     W/m2     F   
------------------------------------------------------------------------------
 353   12:50   42.3    75    4.7     4     12.7   848.0    0.01      77    999.0
 353   13:00   42.1    74    5.1    40     10.3   848.0    0.00      62    999.0
 353   13:10   41.4    76    7.0   333     19.2   848.2    0.01      45    999.0
 353   13:20   40.1    77    6.4   257     12.1   848.1    0.01      36    999.0
 353   13:30   40.2    77    3.7   117      9.1   848.0    0.01      45    999.0
 353   13:40   40.1    77    5.1   101     11.0   847.8    0.00      51    999.0
 353   13:50   40.2    78    4.8    99     10.6   847.9    0.00      56    999.0
 353   14:00   39.8    81    4.5    99      9.2   847.8    0.01      67    999.0
 353   14:10   39.7    83    3.7    68      8.8   847.8    0.00      76    999.0
 353   14:20   39.3    84    6.3   128     11.4   847.7    0.00      67    999.0
 353   14:30   39.6    83    4.8   135     10.1   847.7    0.00     170    999.0
 353   14:40   40.8    80    8.3   128     15.1   847.8    0.00     164    999.0
 353   14:50   40.8    80    7.9   124     13.1   847.9    0.00     116    999.0
 353   15:00   40.7    81    8.3   139     11.4   847.9    0.00     122    999.0
 353   15:10   41.0    78    7.5   137     13.8   848.0    0.00      91    999.0
 353   15:20   41.6    74    7.2   134     12.4   847.9    0.00      82    999.0
 353   15:30   41.7    74    7.1   135     10.7   847.8    0.00      57    999.0
 353   15:40   42.0    72    6.9   168     11.6   847.8    0.00      49    999.0
 353   15:50   42.1    72    5.8   164      9.2   847.6    0.00      43    999.0
 353   16:00   41.9    74    6.6   200     11.0   847.7    0.00      25    999.0
 353   16:10   41.7    75    6.7   162     10.9   847.8    0.00      12    999.0
 353   16:20   41.4    76    7.0   163     10.6   847.8    0.00       7    999.0
 353   16:30   41.0    78    6.9   188     10.1   847.8    0.00       3    999.0
 353   16:40   40.6    80    5.9   192     10.7   847.6    0.00       1    999.0
 353   16:50   40.7    79    6.3   179      9.6   847.7    0.00       0    999.0
 353   17:00   40.6    80    5.8   177      9.2   847.8    0.00       0    999.0
 353   17:10   40.3    81    4.6   185      7.7   848.0    0.00       0    999.0
 353   17:20   40.0    81    5.4   195      8.1   848.1    0.00       0    999.0
 353   17:30   40.1    81    4.0   193      6.3   848.2    0.00       0    999.0
 353   17:40   40.0    82    3.3   163      4.7   848.2    0.01       0    999.0
 353   17:50   39.5    84    3.7   233      4.9   848.2    0.00       0    999.0
 353   18:00   39.2    86    3.9   257      5.4   848.2    0.00       0    999.0
 353   18:10   39.6    83    2.8   271      5.2   848.3    0.00       0    999.0
 353   18:20   39.6    84    1.6    62      3.4   848.3    0.00       0    999.0
 353   18:30   39.4    85    1.8   201      3.3   848.5    0.00       0    999.0
 353   18:40   39.4    84    1.7   175      3.6   848.5    0.00       0    999.0
 353   18:50   39.5    84    2.4   192      5.8   848.4    0.00       0    999.0
 353   19:00   39.5    84    3.7   181      7.1   848.2    0.01       0    999.0
 353   19:10   39.5    84    5.0   199      9.5   847.9    0.00       0    999.0
 353   19:20   39.5    84    5.9   212      9.2   847.8    0.00       0    999.0
 353   19:30   39.9    82    5.9   212      9.0   847.9    0.00       0    999.0
 353   19:40   39.8    83    3.4   161      8.4   848.1    0.00       0    999.0
 353   19:50   39.2    86    1.6   157      3.0   848.1    0.00       0    999.0
 353   20:00   39.1    87    2.0   187      3.7   848.0    0.00       0    999.0
 353   20:10   38.9    88    1.4   144      3.0   847.8    0.01       0    999.0
 353   20:20   38.6    89    1.2   351      2.9   847.6    0.00       0    999.0
 353   20:30   38.5    90    0.4   359      2.2   847.7    0.00       0    999.0
 353   20:40   38.6    89    0.6    63      3.5   847.6    0.00       0    999.0
 353   20:50   38.6    88    2.0   292      3.9   847.6    0.00       0    999.0
 353   21:00   38.6    89    0.4   343      1.9   847.6    0.00       0    999.0
 353   21:10   38.6    88    0.9   351      2.1   847.7    0.00       0    999.0
 353   21:20   38.5    89    0.5     2      2.3   847.9    0.00       0    999.0
 353   21:30   38.7    88    0.9   306      2.4   848.1    0.00       0    999.0
 353   21:40   38.6    88    1.2   300      2.8   848.2    0.00       0    999.0
 353   21:50   38.5    88    1.9   289      3.1   848.3    0.00       0    999.0
 353   22:00   38.6    89    1.6   298      4.8   848.5    0.00       0    999.0
 353   22:10   38.5    89    2.5    43      4.8   848.5    0.00       0    999.0
 353   22:20   38.5    89    2.4    79      6.8   848.4    0.00       0    999.0
 353   22:30   38.8    88    3.1   155      5.8   848.3    0.00       0    999.0
 353   22:40   39.5    84    3.8   118      7.9   848.3    0.00       0    999.0
 353   22:50   39.8    83    3.3    69      7.4   848.2    0.00       0    999.0
 353   23:00   39.6    82    5.8   106     13.5   848.3    0.00       0    999.0
 353   23:10   41.9    71    9.9   140     16.2   848.2    0.00       0    999.0
 353   23:20   42.4    69   10.4   150     15.6   848.0    0.00       0    999.0
 353   23:30   42.3    69   10.5   165     16.3   848.0    0.00       0    999.0
 353   23:40   41.6    72    8.5   167     13.1   848.0    0.00       0    999.0
 353   23:50   41.3    73    8.6   178     13.9   847.9    0.00       0    999.0
 354    0:00   41.9    72    9.5   166     16.8   847.5    0.00       0    999.0
 354    0:10   41.6    73   10.1   181     15.7   847.3    0.00       0    999.0
 354    0:20   41.6    71    9.2   184     14.4   847.3    0.00       0    999.0
 354    0:30   42.0    69    7.5   170     13.6   847.5    0.00       0    999.0
 354    0:40   42.2    67    8.6   145     13.9   847.4    0.00       0    999.0
 354    0:50   42.2    67    7.8   142     13.9   847.4    0.00       0    999.0
 354    1:00   42.6    65   11.4   159     17.0   847.2    0.00       0    999.0
 354    1:10   43.4    62    8.8   148     19.4   847.2    0.00       0    999.0
 354    1:20   43.1    62    8.7   155     13.3   847.1    0.00       0    999.0
 354    1:30   42.6    64    6.2   140     11.4   846.8    0.00       0    999.0
 354    1:40   42.3    64    7.0   145     16.6   846.8    0.00       0    999.0
 354    1:50   42.5    64    8.2   158     13.9   846.8    0.00       0    999.0
 354    2:00   42.6    63   10.3   164     20.3   846.8    0.00       0    999.0
 354    2:10   43.4    62   11.8   180     19.9   847.0    0.00       0    999.0
 354    2:20   43.1    64    7.8   160     11.9   846.8    0.00       0    999.0
 354    2:30   42.9    64    7.9   144     14.4   846.7    0.00       0    999.0
 354    2:40   43.5    62    9.0   144     17.4   846.5    0.00       0    999.0
 354    2:50   42.8    63   10.5   123     17.7   846.2    0.00       0    999.0
 354    3:00   43.2    59   11.8   133     19.9   846.2    0.00       0    999.0
 354    3:10   43.9    54    8.9   114     13.6   846.6    0.00       0    999.0
 354    3:20   44.4    50    9.7   154     18.4   846.5    0.00       0    999.0
 354    3:30   43.9    53    7.9   157     12.8   846.5    0.00       0    999.0
 354    3:40   44.5    51    5.2   142     12.1   846.4    0.00       0    999.0
 354    3:50   44.9    53    5.2   117     13.4   846.5    0.00       0    999.0
 354    4:00   44.7    58    5.7    65     14.9   846.7    0.00       0    999.0
 354    4:10   44.5    59    4.0   241      9.0   846.5    0.00       0    999.0
 354    4:20   43.9    62    4.1   210     10.7   846.3    0.00       0    999.0
 354    4:30   44.0    62    6.4   114     11.6   846.5    0.00       0    999.0
 354    4:40   43.6    65    3.9   109      7.8   846.5    0.00       0    999.0
 354    4:50   43.4    67    6.2   127     11.2   846.5    0.00       0    999.0
 354    5:00   42.5    73    4.6   127      7.6   846.6    0.01       0    999.0
 354    5:10   41.8    76    2.9   194      5.4   846.8    0.00       0    999.0
 354    5:20   41.8    76    4.2   179      9.4   846.8    0.00       0    999.0
 354    5:30   42.0    73    5.3   169     10.6   846.7    0.00       0    999.0
 354    5:40   42.2    72    8.9   153     14.1   846.7    0.00       0    999.0
 354    5:50   41.9    74    8.2   168     12.6   846.9    0.00       0    999.0
 354    6:00   41.7    75    8.6   163     14.2   846.7    0.00       0    999.0
 354    6:10   41.9    74    8.7   167     14.7   846.9    0.00       0    999.0
 354    6:20   42.2    72    7.8   176     13.9   847.1    0.00       0    999.0
 354    6:30   42.4    71    5.4   164     10.2   847.2    0.00       0    999.0
 354    6:40   42.1    72    7.5   143     11.7   847.1    0.01       0    999.0
 354    6:50   41.8    73    8.0   156     14.1   847.1    0.00       0    999.0
 354    7:00   41.3    75    7.2   185     12.1   847.2    0.00       0    999.0
 354    7:10   41.2    75    6.8   171     11.4   847.5    0.00       0    999.0
 354    7:20   41.6    73    4.0   165      7.9   847.5    0.00       0    999.0
 354    7:30   41.9    72    2.2   195      6.2   847.5    0.00       1    999.0
 354    7:40   41.7    74    3.0   179      5.1   847.6    0.00       6    999.0
 354    7:50   41.5    75    3.7   180     10.4   847.5    0.00       9    999.0
 354    8:00   42.3    71    9.8   159     16.0   847.6    0.00      10    999.0
 354    8:10   42.9    70   10.5   150     15.5   847.3    0.00      26    999.0
 354    8:20   43.4    68   11.3   157     17.9   847.3    0.00      34    999.0
 354    8:30   43.4    68   11.3   167     19.7   847.5    0.00      25    999.0
 354    8:40   43.6    68   10.8   148     18.4   847.6    0.00      29    999.0
 354    8:50   43.8    67   12.2   142     20.7   847.5    0.00      65    999.0
 354    9:00   44.6    64   15.4   145     25.3   847.5    0.00      62    999.0
 354    9:10   44.7    64   15.0   154     22.2   847.6    0.00      49    999.0
 354    9:20   44.8    63   13.4   148     22.4   847.8    0.00      35    999.0
 354    9:30   45.0    64   11.4   148     18.0   848.0    0.00      73    999.0
 354    9:40   45.3    64   10.9   146     20.7   848.1    0.00      64    999.0
 354    9:50   45.4    64   11.2   141     26.1   848.3    0.00      50    999.0
 354   10:00   45.2    64   11.1   138     18.4   848.3    0.00      35    999.0
 354   10:10   44.8    67   11.5   135     19.6   848.3    0.00      53    999.0
 354   10:20   44.5    68   12.0   146     19.2   848.4    0.00      38    999.0
 354   10:30   44.0    70   10.4   139     18.5   848.2    0.00      62    999.0
 354   10:40   44.2    69   10.8   131     17.8   848.1    0.00      71    999.0
 354   10:50   44.3    68    9.1   137     17.7   848.3    0.00      55    999.0
 354   11:00   44.7    66    5.9   144     11.6   848.3    0.00     114    999.0
 354   11:10   45.0    66   10.8   140     17.8   848.1    0.00     126    999.0
 354   11:20   45.4    64    7.5   162     15.3   848.1    0.00     124    999.0
 354   11:30   45.7    62    9.3   182     23.7   847.8    0.00     179    999.0
 354   11:40   45.8    62    6.6   157     15.7   847.6    0.00     125    999.0
 354   11:50   46.0    62    7.8   139     17.7   847.4    0.00     166    999.0
 354   12:00   46.3    60    9.1   159     16.9   847.2    0.00     281    999.0
 354   12:10   46.7    59   11.1   210     25.4   847.1    0.00     210    999.0
 354   12:20   46.4    59    9.8   186     21.0   847.3    0.00     237    999.0
 354   12:30   47.1    58    8.5   218     20.3   847.1    0.00     375    999.0
 354   12:40   47.3    58    6.0   116     16.3   847.0    0.00     280    999.0

Return to Yerington, Nevada graphs page.


Western Regional Climate Center,wrcc@dri.edu